Portada
METAR-TAF:

METAR-TAF

Aeropuertos :

Mendoza, Argentina

Aeropuerto Internacional Gobernador Francisco Gabrielli

latitud: 32-50S, longitud: 068-47W, altitud: 705 m

Observación

El informe se hizo hace 32 minutos, a las 22:00 UTC
Viento calma
Temperatura 16°C
Humedad 29%
Presión 1005 hPa
Visibilidad 10 km o más
sin nubes por debajo de 1500 m y sin presencia de cumulonimbus.

METAR: SAME 222200Z 00000KT CAVOK 16/M02 Q1005

Hora: 19:32 (22:32 UTC)

Pronóstico

El informe se hizo hace 5 horas y 32 minutos, a las 17:00 UTC
Pronóstico válido del 22 a las 18 UTC al 23 a las 18 UTC
Viento 5 kt del este-noreste
Visibilidad 10 km o más
sin nubes por debajo de 1500 m y sin presencia de cumulonimbus.
Evolucionando progresivamente
del 23 a las 05 UTC al 23 a las 07 UTC
Viento 10 kt del sur
Visibilidad 10 km o más
Nubes dispersas a una altura de 4000 ft

TAF: SAME 221700Z 2218/2318 07005KT CAVOK TX19/2220Z TN03/2310Z BECMG 2305/2307 18010KT 9999 SCT040

Observaciones y pronósticos meteorológicos de más de 4000 aeropuertos (mensajes METAR y TAF).

Los puntos amarillos y rojos representan las estaciones disponibles.

Ponga el ratón en el punto deseado para ver el nombre de la estación.

Haga clic para ver las observaciones y los pronósticos meteorológicos.

Para cambiar el mapa : haga clic en los botones verdes con una cruz de color negro para hacer un zoom, en el botón verde con un guión para alejar o en las flechas verdes para mapas adyacentes.


METAR-TAF: